createdAt,value
2023-06-18T00:01:18.759Z,100281.00
2023-06-18T00:03:47.294Z,100280.41
2023-06-18T00:06:16.811Z,100279.56
2023-06-18T00:08:44.940Z,100282.59
2023-06-18T00:11:13.434Z,100287.59
2023-06-18T00:13:41.583Z,100277.44
2023-06-18T00:16:09.712Z,100284.84
2023-06-18T00:18:38.269Z,100289.53
2023-06-18T00:21:08.821Z,100288.81
2023-06-18T00:23:38.709Z,100294.00
2023-06-18T00:26:07.029Z,100295.78
2023-06-18T00:28:35.089Z,100297.53
2023-06-18T00:31:03.624Z,100294.78
2023-06-18T00:33:34.626Z,100295.25
2023-06-18T00:36:07.814Z,100296.00
2023-06-18T00:38:38.855Z,100293.31
2023-06-18T00:41:06.862Z,100292.47
2023-06-18T00:43:34.971Z,100293.47
2023-06-18T00:46:06.575Z,100289.94
2023-06-18T00:48:37.214Z,100277.25
2023-06-18T00:51:05.802Z,100274.72
2023-06-18T00:53:34.806Z,100277.69
2023-06-18T00:56:04.388Z,100272.78
2023-06-18T00:58:33.023Z,100270.94
2023-06-18T01:01:01.174Z,100270.25
2023-06-18T01:03:33.866Z,100278.47
2023-06-18T01:06:03.668Z,100268.84
2023-06-18T01:08:34.585Z,100269.41
2023-06-18T01:11:06.526Z,100263.31
2023-06-18T01:13:37.623Z,100263.78
2023-06-18T01:16:09.322Z,100263.78
2023-06-18T01:18:42.718Z,100265.16
2023-06-18T01:21:12.495Z,100259.78
2023-06-18T01:23:50.659Z,100275.91
2023-06-18T01:26:22.059Z,100269.84
2023-06-18T01:28:53.098Z,100268.00
2023-06-18T01:31:23.134Z,100265.16
2023-06-18T01:33:54.615Z,100267.16
2023-06-18T01:36:35.570Z,100279.59
2023-06-18T01:39:09.138Z,100274.06
2023-06-18T01:41:44.704Z,100280.59
2023-06-18T01:44:20.068Z,100283.00
2023-06-18T01:46:53.125Z,100280.44
2023-06-18T01:49:22.566Z,100283.28
2023-06-18T01:51:53.270Z,100288.66
2023-06-18T01:54:24.586Z,100280.38
2023-06-18T01:56:54.591Z,100281.47
2023-06-18T01:59:22.633Z,100284.47
2023-06-18T02:01:50.617Z,100282.78
2023-06-18T02:04:19.088Z,100281.37
2023-06-18T02:06:47.389Z,100279.00
2023-06-18T02:09:16.185Z,100289.22
2023-06-18T02:11:44.464Z,100278.91
2023-06-18T02:14:14.161Z,100291.34
2023-06-18T02:16:42.239Z,100292.66
2023-06-18T02:19:11.358Z,100288.59
2023-06-18T02:21:39.356Z,100293.12
2023-06-18T02:24:07.629Z,100292.13
2023-06-18T02:26:36.007Z,100288.59
2023-06-18T02:29:04.048Z,100287.75
2023-06-18T02:31:33.378Z,100291.56
2023-06-18T02:34:03.342Z,100291.16
2023-06-18T02:36:33.509Z,100297.69
2023-06-18T02:39:02.411Z,100308.28
2023-06-18T02:41:30.467Z,100297.69
2023-06-18T02:43:58.575Z,100292.84
2023-06-18T02:46:26.987Z,100309.59
2023-06-18T02:48:56.445Z,100296.97
2023-06-18T02:51:24.571Z,100300.78
2023-06-18T02:53:53.009Z,100307.31
2023-06-18T02:56:21.052Z,100307.63
2023-06-18T02:58:57.178Z,100303.81
2023-06-18T03:01:25.945Z,100307.78
2023-06-18T03:03:55.913Z,100306.66
2023-06-18T03:06:25.336Z,100306.34
2023-06-18T03:08:54.547Z,100300.72
2023-06-18T03:11:23.866Z,100311.16
2023-06-18T03:13:52.421Z,100307.47
2023-06-18T03:16:22.287Z,100310.00
2023-06-18T03:18:50.460Z,100309.03
2023-06-18T03:21:20.428Z,100304.50
2023-06-18T03:23:49.468Z,100309.88
2023-06-18T03:26:17.917Z,100308.31
2023-06-18T03:28:46.214Z,100298.84
2023-06-18T03:31:14.614Z,100305.19
2023-06-18T03:33:42.783Z,100303.09
2023-06-18T03:36:18.768Z,100300.66
2023-06-18T03:38:48.907Z,100296.84
2023-06-18T03:41:17.090Z,100302.59
2023-06-18T03:43:45.105Z,100305.03
2023-06-18T03:46:13.526Z,100307.69
2023-06-18T03:48:44.263Z,100296.66
2023-06-18T03:51:13.418Z,100302.56
2023-06-18T03:53:43.180Z,100303.00
2023-06-18T03:56:12.890Z,100303.53
2023-06-18T03:58:42.423Z,100303.09
2023-06-18T04:01:10.755Z,100309.88
2023-06-18T04:03:39.378Z,100318.34
2023-06-18T04:06:08.604Z,100314.03
2023-06-18T04:08:37.807Z,100315.16
2023-06-18T04:11:06.148Z,100319.63
2023-06-18T04:13:36.573Z,100324.28
2023-06-18T04:16:04.620Z,100327.19
2023-06-18T04:18:33.384Z,100335.37
2023-06-18T04:21:01.462Z,100335.91
2023-06-18T04:23:30.026Z,100338.75
2023-06-18T04:25:58.360Z,100333.38
2023-06-18T04:28:26.644Z,100334.69
2023-06-18T04:30:56.029Z,100341.00
2023-06-18T04:33:24.596Z,100339.66
2023-06-18T04:35:52.671Z,100340.59
2023-06-18T04:38:22.710Z,100340.00
2023-06-18T04:40:51.762Z,100340.97
2023-06-18T04:43:20.788Z,100346.44
2023-06-18T04:45:49.795Z,100339.41
2023-06-18T04:48:20.748Z,100349.44
2023-06-18T04:50:49.495Z,100347.66
2023-06-18T04:53:18.908Z,100349.44
2023-06-18T04:55:47.841Z,100346.81
2023-06-18T04:58:16.183Z,100344.91
2023-06-18T05:00:45.306Z,100339.59
2023-06-18T05:03:14.766Z,100340.34
2023-06-18T05:05:45.172Z,100339.09
2023-06-18T05:08:13.701Z,100338.16
2023-06-18T05:10:42.716Z,100347.00
2023-06-18T05:13:12.515Z,100349.41
2023-06-18T05:15:41.154Z,100350.16
2023-06-18T05:18:09.452Z,100349.91
2023-06-18T05:20:37.853Z,100340.69
2023-06-18T05:23:07.810Z,100334.50
2023-06-18T05:25:38.739Z,100340.91
2023-06-18T05:28:07.240Z,100337.22
2023-06-18T05:30:35.739Z,100337.94
2023-06-18T05:33:03.838Z,100336.13
2023-06-18T05:35:32.640Z,100342.03
2023-06-18T05:38:00.766Z,100345.16
2023-06-18T05:40:30.284Z,100345.84
2023-06-18T05:42:59.225Z,100348.22
2023-06-18T05:45:27.936Z,100349.25
2023-06-18T05:47:56.773Z,100342.16
2023-06-18T05:50:27.633Z,100344.50
2023-06-18T05:52:56.798Z,100348.56
2023-06-18T05:55:25.696Z,100350.44
2023-06-18T05:57:55.744Z,100358.19
2023-06-18T06:00:25.327Z,100345.84
2023-06-18T06:02:54.017Z,100349.53
2023-06-18T06:05:22.687Z,100352.37
2023-06-18T06:07:50.989Z,100355.94
2023-06-18T06:10:21.318Z,100357.06
2023-06-18T06:12:51.143Z,100362.09
2023-06-18T06:15:25.236Z,100364.19
2023-06-18T06:17:54.437Z,100360.41
2023-06-18T06:20:24.022Z,100358.16
2023-06-18T06:22:53.559Z,100371.50
2023-06-18T06:25:22.756Z,100370.16
2023-06-18T06:27:55.036Z,100367.03
2023-06-18T06:30:26.195Z,100377.66
2023-06-18T06:32:56.724Z,100379.09
2023-06-18T06:35:26.167Z,100373.25
2023-06-18T06:37:57.033Z,100385.06
2023-06-18T06:40:27.387Z,100384.31
2023-06-18T06:42:57.226Z,100387.56
2023-06-18T06:45:29.385Z,100384.12
2023-06-18T06:48:10.771Z,100389.78
2023-06-18T06:50:43.611Z,100388.59
2023-06-18T06:53:13.937Z,100390.38
2023-06-18T06:58:39.756Z,100386.50
2023-06-18T07:01:09.752Z,100383.44
2023-06-18T07:03:38.403Z,100393.47
2023-06-18T07:06:08.123Z,100396.37
2023-06-18T07:08:36.733Z,100394.69
2023-06-18T07:11:05.024Z,100396.34
2023-06-18T07:13:33.206Z,100392.91
2023-06-18T07:16:01.579Z,100397.09
2023-06-18T07:18:31.220Z,100395.91
2023-06-18T07:20:59.905Z,100392.38
2023-06-18T07:23:28.246Z,100392.00
2023-06-18T07:25:56.329Z,100384.34
2023-06-18T07:28:27.650Z,100389.31
2023-06-18T07:30:56.259Z,100380.66
2023-06-18T07:33:24.401Z,100388.16
2023-06-18T07:35:54.075Z,100381.12
2023-06-18T07:38:23.582Z,100385.75
2023-06-18T07:40:52.044Z,100393.56
2023-06-18T07:43:20.537Z,100388.41
2023-06-18T07:45:49.015Z,100383.56
2023-06-18T07:48:17.312Z,100390.53
2023-06-18T07:50:45.711Z,100391.47
2023-06-18T07:53:15.823Z,100390.88
2023-06-18T07:55:43.986Z,100391.94
2023-06-18T07:58:12.199Z,100395.16
2023-06-18T08:00:40.660Z,100388.22
2023-06-18T08:03:09.531Z,100385.31
2023-06-18T08:05:37.894Z,100386.13
2023-06-18T08:08:06.270Z,100393.50
2023-06-18T08:10:36.149Z,100385.28
2023-06-18T08:13:04.515Z,100380.88
2023-06-18T08:15:32.839Z,100381.62
2023-06-18T08:18:01.403Z,100375.53
2023-06-18T08:20:29.780Z,100371.47
2023-06-18T08:22:58.298Z,100376.03
2023-06-18T08:25:27.156Z,100375.41
2023-06-18T08:27:57.721Z,100366.28
2023-06-18T08:30:26.223Z,100367.31
2023-06-18T08:32:57.498Z,100374.41
2023-06-18T08:35:25.852Z,100373.53
2023-06-18T08:37:54.496Z,100370.91
2023-06-18T08:40:25.964Z,100371.53
2023-06-18T08:43:06.667Z,100365.00
2023-06-18T08:45:36.037Z,100362.81
2023-06-18T08:48:15.607Z,100365.94
2023-06-18T08:51:04.785Z,100372.06
2023-06-18T08:53:43.142Z,100377.13
2023-06-18T08:56:11.423Z,100379.87
2023-06-18T08:58:47.835Z,100374.09
2023-06-18T09:01:16.941Z,100377.16
2023-06-18T09:03:46.289Z,100377.25
2023-06-18T09:06:14.769Z,100386.91
2023-06-18T09:08:42.959Z,100375.56
2023-06-18T09:11:13.382Z,100376.88
2023-06-18T09:13:45.012Z,100375.16
2023-06-18T09:16:14.253Z,100377.88
2023-06-18T09:18:42.974Z,100363.81
2023-06-18T09:21:12.967Z,100373.09
2023-06-18T09:23:42.409Z,100364.62
2023-06-18T09:26:14.781Z,100367.78
2023-06-18T09:28:44.871Z,100358.41
2023-06-18T09:31:13.037Z,100358.31
2023-06-18T09:33:41.325Z,100357.78
2023-06-18T09:36:10.875Z,100343.38
2023-06-18T09:38:40.165Z,100348.59
2023-06-18T09:41:13.792Z,100353.78
2023-06-18T09:43:45.169Z,100349.59
2023-06-18T09:46:14.652Z,100347.09
2023-06-18T09:48:45.761Z,100353.69
2023-06-18T09:51:16.429Z,100351.53
2023-06-18T09:53:46.727Z,100353.19
2023-06-18T09:56:15.917Z,100352.25
2023-06-18T09:58:50.058Z,100350.22
2023-06-18T10:01:19.374Z,100345.56
2023-06-18T10:03:49.137Z,100350.34
2023-06-18T10:06:19.004Z,100356.66
2023-06-18T10:08:49.301Z,100346.25
2023-06-18T10:11:18.819Z,100343.09
2023-06-18T10:13:50.606Z,100342.44
2023-06-18T10:16:20.362Z,100336.56
2023-06-18T10:19:04.085Z,100339.53
2023-06-18T10:21:37.878Z,100340.66
2023-06-18T10:24:18.062Z,100334.03
2023-06-18T10:26:48.009Z,100336.09
2023-06-18T10:29:17.825Z,100340.69
2023-06-18T10:31:47.757Z,100335.50
2023-06-18T10:34:17.185Z,100331.41
2023-06-18T10:36:46.687Z,100332.75
2023-06-18T10:39:24.561Z,100331.72
2023-06-18T10:41:53.899Z,100332.34
2023-06-18T10:44:36.177Z,100325.53
2023-06-18T10:47:22.214Z,100327.09
2023-06-18T10:50:11.766Z,100330.53
2023-06-18T10:52:40.926Z,100327.28
2023-06-18T10:55:09.724Z,100332.03
2023-06-18T10:57:38.740Z,100325.16
2023-06-18T11:00:18.394Z,100319.25
2023-06-18T11:02:47.740Z,100316.34
2023-06-18T11:05:17.725Z,100314.22
2023-06-18T11:08:00.320Z,100311.25
2023-06-18T11:10:33.854Z,100305.44
2023-06-18T11:13:04.034Z,100315.03
2023-06-18T11:15:35.222Z,100305.63
2023-06-18T11:18:04.249Z,100308.81
2023-06-18T11:20:36.246Z,100308.63
2023-06-18T11:23:06.278Z,100299.44
2023-06-18T11:25:35.138Z,100294.91
2023-06-18T11:28:04.400Z,100294.03
2023-06-18T11:30:34.507Z,100285.59
2023-06-18T11:33:03.263Z,100286.47
2023-06-18T11:35:32.327Z,100278.50
2023-06-18T11:38:00.888Z,100287.59
2023-06-18T11:40:29.337Z,100277.50
2023-06-18T11:42:57.434Z,100281.00
2023-06-18T11:45:25.929Z,100278.06
2023-06-18T11:47:56.003Z,100273.84
2023-06-18T11:50:27.496Z,100268.47
2023-06-18T11:52:56.110Z,100270.78
2023-06-18T11:55:24.644Z,100264.94
2023-06-18T11:57:58.296Z,100274.09
2023-06-18T12:00:26.741Z,100263.44
2023-06-18T12:02:56.637Z,100266.12
2023-06-18T12:05:24.992Z,100265.31
2023-06-18T12:07:53.128Z,100266.59
2023-06-18T12:10:22.131Z,100268.59
2023-06-18T12:12:58.141Z,100270.81
2023-06-18T12:15:34.959Z,100272.03
2023-06-18T12:18:10.389Z,100266.66
2023-06-18T12:20:39.400Z,100261.00
2023-06-18T12:23:07.552Z,100272.56
2023-06-18T12:25:36.701Z,100267.41
2023-06-18T12:28:05.974Z,100263.44
2023-06-18T12:30:37.681Z,100264.69
2023-06-18T12:33:09.174Z,100268.09
2023-06-18T12:35:38.615Z,100259.16
2023-06-18T12:38:09.456Z,100257.34
2023-06-18T12:40:47.919Z,100260.25
2023-06-18T12:43:18.501Z,100261.41
2023-06-18T12:45:48.756Z,100253.78
2023-06-18T12:48:22.210Z,100246.38
2023-06-18T12:50:52.274Z,100245.50
2023-06-18T12:53:22.706Z,100245.53
2023-06-18T12:55:54.348Z,100233.84
2023-06-18T12:58:25.321Z,100232.66
2023-06-18T13:00:55.486Z,100240.66
2023-06-18T13:03:28.331Z,100232.91
2023-06-18T13:05:58.649Z,100228.88
2023-06-18T13:08:27.405Z,100229.72
2023-06-18T13:10:57.656Z,100223.59
2023-06-18T13:13:25.906Z,100224.97
2023-06-18T13:15:54.458Z,100224.94
2023-06-18T13:18:23.238Z,100227.88
2023-06-18T13:20:55.338Z,100219.78
2023-06-18T13:23:23.855Z,100225.72
2023-06-18T13:25:56.139Z,100225.34
2023-06-18T13:28:24.737Z,100222.25
2023-06-18T13:30:52.892Z,100218.56
2023-06-18T13:33:21.075Z,100221.88
2023-06-18T13:35:49.673Z,100213.47
2023-06-18T13:38:19.303Z,100214.13
2023-06-18T13:40:47.768Z,100214.72
2023-06-18T13:43:16.339Z,100210.25
2023-06-18T13:45:44.523Z,100209.41
2023-06-18T13:48:13.559Z,100205.78
2023-06-18T13:50:42.108Z,100209.66
2023-06-18T13:53:11.322Z,100207.56
2023-06-18T13:55:40.937Z,100205.53
2023-06-18T13:58:09.461Z,100212.34
2023-06-18T14:00:37.616Z,100202.72
2023-06-18T14:03:06.198Z,100196.66
2023-06-18T14:05:37.019Z,100201.09
2023-06-18T14:08:06.263Z,100199.19
2023-06-18T14:10:34.412Z,100198.44
2023-06-18T14:13:03.854Z,100195.12
2023-06-18T14:15:32.835Z,100193.78
2023-06-18T14:18:01.034Z,100198.50
2023-06-18T14:20:29.182Z,100199.59
2023-06-18T14:22:57.610Z,100201.53
2023-06-18T14:25:26.487Z,100193.22
2023-06-18T14:27:54.506Z,100206.53
2023-06-18T14:30:24.340Z,100200.97
2023-06-18T14:32:52.581Z,100198.16
2023-06-18T14:35:21.499Z,100197.25
2023-06-18T14:37:50.494Z,100204.62
2023-06-18T14:40:18.676Z,100190.78
2023-06-18T14:42:47.092Z,100196.03
2023-06-18T14:45:15.950Z,100192.59
2023-06-18T14:47:45.759Z,100189.66
2023-06-18T14:50:15.462Z,100191.66
2023-06-18T14:52:44.012Z,100190.97
2023-06-18T14:55:13.794Z,100188.00
2023-06-18T14:57:42.236Z,100195.09
2023-06-18T15:00:12.099Z,100193.78
2023-06-18T15:02:41.044Z,100193.59
2023-06-18T15:05:10.991Z,100195.22
2023-06-18T15:07:39.770Z,100190.75
2023-06-18T15:10:08.746Z,100190.59
2023-06-18T15:12:37.024Z,100193.75
2023-06-18T15:15:06.083Z,100186.19
2023-06-18T15:17:34.262Z,100184.16
2023-06-18T15:20:02.552Z,100186.50
2023-06-18T15:22:32.255Z,100185.66
2023-06-18T15:25:00.571Z,100181.84
2023-06-18T15:27:28.659Z,100174.31
2023-06-18T15:29:57.284Z,100178.81
2023-06-18T15:32:26.185Z,100175.38
2023-06-18T15:34:54.423Z,100165.56
2023-06-18T15:37:22.815Z,100170.66
2023-06-18T15:39:52.213Z,100172.22
2023-06-18T15:42:20.816Z,100163.78
2023-06-18T15:44:49.266Z,100164.31
2023-06-18T15:47:17.976Z,100164.34
2023-06-18T15:49:46.073Z,100152.50
2023-06-18T15:52:16.177Z,100163.38
2023-06-18T15:54:44.369Z,100163.56
2023-06-18T15:57:13.864Z,100170.06
2023-06-18T15:59:42.182Z,100156.13
2023-06-18T16:02:10.751Z,100161.28
2023-06-18T16:04:39.320Z,100161.12
2023-06-18T16:07:07.500Z,100162.13
2023-06-18T16:09:37.127Z,100160.16
2023-06-18T16:12:06.281Z,100155.69
2023-06-18T16:14:36.103Z,100158.00
2023-06-18T16:17:05.049Z,100153.78
2023-06-18T16:19:33.587Z,100153.38
2023-06-18T16:22:01.757Z,100154.50
2023-06-18T16:24:29.855Z,100159.75
2023-06-18T16:27:00.939Z,100159.81
2023-06-18T16:29:28.897Z,100160.41
2023-06-18T16:31:58.362Z,100156.66
2023-06-18T16:34:26.715Z,100159.47
2023-06-18T16:36:54.674Z,100145.87
2023-06-18T16:39:22.729Z,100147.41
2023-06-18T16:41:51.023Z,100143.16
2023-06-18T16:44:19.135Z,100142.88
2023-06-18T16:46:48.729Z,100145.06
2023-06-18T16:49:18.384Z,100146.31
2023-06-18T16:51:47.835Z,100140.19
2023-06-18T16:54:16.126Z,100147.00
2023-06-18T16:56:44.593Z,100151.53
2023-06-18T16:59:12.677Z,100141.69
2023-06-18T17:01:40.967Z,100148.75
2023-06-18T17:04:09.394Z,100144.06
2023-06-18T17:06:38.926Z,100141.81
2023-06-18T17:09:07.101Z,100142.37
2023-06-18T17:11:35.574Z,100147.66
2023-06-18T17:14:03.652Z,100146.50
2023-06-18T17:16:31.816Z,100146.97
2023-06-18T17:19:00.183Z,100148.47
2023-06-18T17:21:28.541Z,100133.16
2023-06-18T17:24:01.468Z,100146.47
2023-06-18T17:26:31.245Z,100145.34
2023-06-18T17:28:59.659Z,100146.16
2023-06-18T17:31:28.091Z,100136.13
2023-06-18T17:33:56.660Z,100138.75
2023-06-18T17:36:24.752Z,100148.13
2023-06-18T17:38:53.295Z,100143.19
2023-06-18T17:41:22.953Z,100142.37
2023-06-18T17:43:51.013Z,100146.81
2023-06-18T17:46:21.543Z,100147.81
2023-06-18T17:48:50.875Z,100150.44
2023-06-18T17:51:19.638Z,100152.53
2023-06-18T17:53:47.909Z,100153.72
2023-06-18T17:56:16.283Z,100156.75
2023-06-18T17:58:48.611Z,100157.50
2023-06-18T18:01:17.167Z,100150.19
2023-06-18T18:03:46.744Z,100148.94
2023-06-18T18:06:24.182Z,100149.59
2023-06-18T18:09:06.132Z,100151.34
2023-06-18T18:11:37.625Z,100149.34
2023-06-18T18:14:08.318Z,100149.09
2023-06-18T18:16:38.072Z,100153.69
2023-06-18T18:19:06.656Z,100159.13
2023-06-18T18:21:36.924Z,100160.91
2023-06-18T18:24:05.087Z,100162.03
2023-06-18T18:26:47.213Z,100157.97
2023-06-18T18:29:17.902Z,100164.00
2023-06-18T18:31:46.816Z,100161.66
2023-06-18T18:34:14.959Z,100165.75
2023-06-18T18:36:43.062Z,100159.19
2023-06-18T18:39:11.507Z,100162.50
2023-06-18T18:41:39.559Z,100161.59
2023-06-18T18:44:07.662Z,100160.00
2023-06-18T18:46:37.881Z,100160.62
2023-06-18T18:49:06.130Z,100162.87
2023-06-18T18:51:34.455Z,100151.06
2023-06-18T18:54:02.775Z,100152.22
2023-06-18T18:56:30.953Z,100147.88
2023-06-18T18:59:00.216Z,100154.81
2023-06-18T19:01:28.641Z,100157.91
2023-06-18T19:03:58.241Z,100148.53
2023-06-18T19:06:26.346Z,100155.19
2023-06-18T19:08:54.712Z,100158.72
2023-06-18T19:11:22.841Z,100158.75
2023-06-18T19:13:51.086Z,100166.94
2023-06-18T19:16:20.739Z,100166.19
2023-06-18T19:18:49.034Z,100157.78
2023-06-18T19:21:18.743Z,100176.16
2023-06-18T19:23:47.110Z,100167.41
2023-06-18T19:26:15.341Z,100172.28
2023-06-18T19:28:43.773Z,100175.25
2023-06-18T19:31:12.286Z,100173.66
2023-06-18T19:33:40.494Z,100177.91
2023-06-18T19:36:08.892Z,100173.03
2023-06-18T19:38:38.700Z,100178.47
2023-06-18T19:41:06.996Z,100177.53
2023-06-18T19:43:35.162Z,100183.72
2023-06-18T19:46:03.648Z,100178.59
2023-06-18T19:48:31.945Z,100176.53
2023-06-18T19:51:00.578Z,100190.84
2023-06-18T19:53:29.736Z,100193.44
2023-06-18T19:56:01.895Z,100183.44
2023-06-18T19:58:30.363Z,100182.59
2023-06-18T20:00:58.477Z,100198.56
2023-06-18T20:03:26.948Z,100199.38
2023-06-18T20:05:57.764Z,100206.31
2023-06-18T20:08:27.056Z,100198.75
2023-06-18T20:10:55.179Z,100197.44
2023-06-18T20:13:24.502Z,100203.88
2023-06-18T20:15:52.902Z,100200.84
2023-06-18T20:18:21.228Z,100211.59
2023-06-18T20:20:49.475Z,100206.91
2023-06-18T20:23:18.007Z,100210.66
2023-06-18T20:25:46.046Z,100211.88
2023-06-18T20:28:14.164Z,100208.72
2023-06-18T20:30:43.929Z,100210.78
2023-06-18T20:33:13.109Z,100217.44
2023-06-18T20:35:41.341Z,100213.06
2023-06-18T20:38:09.746Z,100223.50
2023-06-18T20:40:37.815Z,100221.41
2023-06-18T20:43:06.092Z,100218.91
2023-06-18T20:45:34.494Z,100221.34
2023-06-18T20:48:04.027Z,100207.94
2023-06-18T20:50:32.412Z,100226.16
2023-06-18T20:53:00.675Z,100216.28
2023-06-18T20:55:28.888Z,100218.22
2023-06-18T20:57:58.455Z,100218.97
2023-06-18T21:00:27.806Z,100210.69
2023-06-18T21:02:56.345Z,100213.56
2023-06-18T21:05:25.844Z,100213.22
2023-06-18T21:07:54.205Z,100216.81
2023-06-18T21:10:23.974Z,100219.59
2023-06-18T21:12:52.329Z,100225.88
2023-06-18T21:15:20.742Z,100221.69
2023-06-18T21:17:48.929Z,100217.66
2023-06-18T21:20:17.268Z,100223.06
2023-06-18T21:22:47.139Z,100218.09
2023-06-18T21:25:15.677Z,100209.94
2023-06-18T21:27:44.000Z,100209.56
2023-06-18T21:30:13.771Z,100218.28
2023-06-18T21:32:41.986Z,100211.38
2023-06-18T21:35:10.978Z,100209.75
2023-06-18T21:37:44.452Z,100212.19
2023-06-18T21:40:15.405Z,100214.34
2023-06-18T21:42:44.633Z,100208.28
2023-06-18T21:45:13.405Z,100212.28
2023-06-18T21:47:41.995Z,100212.16
2023-06-18T21:50:11.426Z,100219.28
2023-06-18T21:52:39.664Z,100210.59
2023-06-18T21:55:09.122Z,100212.28
2023-06-18T21:57:39.298Z,100214.88
2023-06-18T22:00:10.779Z,100207.00
2023-06-18T22:02:39.105Z,100213.06
2023-06-18T22:05:07.771Z,100209.34
2023-06-18T22:07:35.930Z,100220.22
2023-06-18T22:10:04.104Z,100222.53
2023-06-18T22:12:32.505Z,100219.44
2023-06-18T22:15:01.979Z,100211.94
2023-06-18T22:17:30.226Z,100216.91
2023-06-18T22:19:58.618Z,100216.91
2023-06-18T22:22:26.771Z,100210.63
2023-06-18T22:24:54.850Z,100205.59
2023-06-18T22:27:23.191Z,100206.63
2023-06-18T22:29:53.494Z,100207.59
2023-06-18T22:32:23.789Z,100206.94
2023-06-18T22:34:52.347Z,100203.50
2023-06-18T22:37:20.621Z,100201.38
2023-06-18T22:39:48.713Z,100203.78
2023-06-18T22:42:17.045Z,100207.19
2023-06-18T22:44:45.170Z,100202.41
2023-06-18T22:47:13.373Z,100220.34
2023-06-18T22:49:43.046Z,100208.66
2023-06-18T22:52:11.068Z,100210.06
2023-06-18T22:54:39.192Z,100215.47
2023-06-18T22:57:08.193Z,100201.06
2023-06-18T22:59:36.264Z,100202.94
2023-06-18T23:02:04.571Z,100202.47
2023-06-18T23:04:32.897Z,100200.13
2023-06-18T23:07:02.163Z,100197.78
2023-06-18T23:09:30.218Z,100193.78
2023-06-18T23:11:58.536Z,100191.91
2023-06-18T23:14:26.597Z,100190.69
2023-06-18T23:16:54.838Z,100191.06
2023-06-18T23:19:23.188Z,100193.13
2023-06-18T23:21:51.219Z,100188.44
2023-06-18T23:24:21.201Z,100183.75
2023-06-18T23:26:49.550Z,100189.75
2023-06-18T23:29:20.376Z,100185.56
2023-06-18T23:31:49.428Z,100191.31
2023-06-18T23:34:27.305Z,100190.22
2023-06-18T23:37:00.384Z,100189.44
2023-06-18T23:39:30.308Z,100186.37
2023-06-18T23:41:58.457Z,100184.78
2023-06-18T23:44:26.549Z,100184.03
2023-06-18T23:46:55.520Z,100191.88
2023-06-18T23:49:23.724Z,100187.53
2023-06-18T23:51:52.326Z,100178.81
2023-06-18T23:54:20.725Z,100186.16
2023-06-18T23:56:50.199Z,100189.25
2023-06-18T23:59:18.519Z,100187.06
